sensor_id;sensor_type;location;lat;lon;timestamp;P1;durP1;ratioP1;P2;durP2;ratioP2
60969;SDS011;46841;48.938;9.502;2023-04-25T00:02:08;6.05;;;3.80;;
60969;SDS011;46841;48.938;9.502;2023-04-25T00:04:34;5.95;;;4.25;;
60969;SDS011;46841;48.938;9.502;2023-04-25T00:06:59;6.57;;;3.78;;
60969;SDS011;46841;48.938;9.502;2023-04-25T00:09:28;6.55;;;4.38;;
60969;SDS011;46841;48.938;9.502;2023-04-25T00:11:53;6.55;;;4.22;;
60969;SDS011;46841;48.938;9.502;2023-04-25T00:14:18;5.40;;;3.45;;
60969;SDS011;46841;48.938;9.502;2023-04-25T00:16:44;6.10;;;3.33;;
60969;SDS011;46841;48.938;9.502;2023-04-25T00:19:09;5.13;;;3.50;;
60969;SDS011;46841;48.938;9.502;2023-04-25T00:21:34;6.30;;;3.60;;
60969;SDS011;46841;48.938;9.502;2023-04-25T00:24:00;5.47;;;3.67;;
60969;SDS011;46841;48.938;9.502;2023-04-25T00:26:26;6.07;;;3.85;;
60969;SDS011;46841;48.938;9.502;2023-04-25T00:28:52;8.10;;;4.68;;
60969;SDS011;46841;48.938;9.502;2023-04-25T00:31:17;7.47;;;4.20;;
60969;SDS011;46841;48.938;9.502;2023-04-25T00:33:42;8.65;;;4.30;;
60969;SDS011;46841;48.938;9.502;2023-04-25T00:36:08;7.28;;;3.95;;
60969;SDS011;46841;48.938;9.502;2023-04-25T00:38:34;7.25;;;3.90;;
60969;SDS011;46841;48.938;9.502;2023-04-25T00:40:59;5.45;;;3.72;;
60969;SDS011;46841;48.938;9.502;2023-04-25T00:43:25;8.07;;;4.40;;
60969;SDS011;46841;48.938;9.502;2023-04-25T00:45:51;6.20;;;3.92;;
60969;SDS011;46841;48.938;9.502;2023-04-25T00:48:17;7.60;;;4.47;;
60969;SDS011;46841;48.938;9.502;2023-04-25T00:50:43;6.80;;;3.55;;
60969;SDS011;46841;48.938;9.502;2023-04-25T00:53:12;4.43;;;3.40;;
60969;SDS011;46841;48.938;9.502;2023-04-25T00:55:37;6.93;;;3.92;;
60969;SDS011;46841;48.938;9.502;2023-04-25T00:58:02;5.20;;;3.65;;
60969;SDS011;46841;48.938;9.502;2023-04-25T01:00:28;6.35;;;3.60;;
60969;SDS011;46841;48.938;9.502;2023-04-25T01:02:53;6.65;;;3.88;;
60969;SDS011;46841;48.938;9.502;2023-04-25T01:05:19;6.72;;;4.00;;
60969;SDS011;46841;48.938;9.502;2023-04-25T01:07:46;6.73;;;4.17;;
60969;SDS011;46841;48.938;9.502;2023-04-25T01:10:12;5.90;;;4.00;;
60969;SDS011;46841;48.938;9.502;2023-04-25T01:12:37;5.38;;;4.00;;
60969;SDS011;46841;48.938;9.502;2023-04-25T01:15:03;5.30;;;3.33;;
60969;SDS011;46841;48.938;9.502;2023-04-25T01:17:28;6.22;;;3.97;;
60969;SDS011;46841;48.938;9.502;2023-04-25T01:19:54;5.45;;;3.67;;
60969;SDS011;46841;48.938;9.502;2023-04-25T01:22:19;8.23;;;4.47;;
60969;SDS011;46841;48.938;9.502;2023-04-25T01:24:46;5.50;;;3.90;;
60969;SDS011;46841;48.938;9.502;2023-04-25T01:27:12;6.30;;;3.93;;
60969;SDS011;46841;48.938;9.502;2023-04-25T01:29:37;6.03;;;4.40;;
60969;SDS011;46841;48.938;9.502;2023-04-25T01:32:03;6.53;;;4.13;;
60969;SDS011;46841;48.938;9.502;2023-04-25T01:34:29;7.45;;;4.38;;
60969;SDS011;46841;48.938;9.502;2023-04-25T01:36:56;5.10;;;3.90;;
60969;SDS011;46841;48.938;9.502;2023-04-25T01:39:24;6.88;;;4.40;;
60969;SDS011;46841;48.938;9.502;2023-04-25T01:41:49;8.63;;;5.00;;
60969;SDS011;46841;48.938;9.502;2023-04-25T01:44:15;6.78;;;4.60;;
60969;SDS011;46841;48.938;9.502;2023-04-25T01:46:40;8.60;;;4.95;;
60969;SDS011;46841;48.938;9.502;2023-04-25T01:49:06;9.60;;;4.72;;
60969;SDS011;46841;48.938;9.502;2023-04-25T01:51:32;8.48;;;5.13;;
60969;SDS011;46841;48.938;9.502;2023-04-25T01:53:58;6.70;;;4.83;;
60969;SDS011;46841;48.938;9.502;2023-04-25T01:56:24;8.38;;;4.57;;
60969;SDS011;46841;48.938;9.502;2023-04-25T01:58:50;7.65;;;4.72;;
60969;SDS011;46841;48.938;9.502;2023-04-25T02:01:18;6.75;;;4.30;;
60969;SDS011;46841;48.938;9.502;2023-04-25T02:03:53;6.93;;;4.63;;
60969;SDS011;46841;48.938;9.502;2023-04-25T02:06:31;7.70;;;4.70;;
60969;SDS011;46841;48.938;9.502;2023-04-25T02:08:57;6.13;;;4.38;;
60969;SDS011;46841;48.938;9.502;2023-04-25T02:11:23;7.15;;;4.40;;
60969;SDS011;46841;48.938;9.502;2023-04-25T02:14:16;6.45;;;4.38;;
60969;SDS011;46841;48.938;9.502;2023-04-25T02:17:04;7.10;;;4.13;;
60969;SDS011;46841;48.938;9.502;2023-04-25T02:19:30;5.65;;;4.28;;
60969;SDS011;46841;48.938;9.502;2023-04-25T02:21:56;5.78;;;4.30;;
60969;SDS011;46841;48.938;9.502;2023-04-25T02:24:22;6.07;;;4.53;;
60969;SDS011;46841;48.938;9.502;2023-04-25T02:26:47;7.43;;;4.85;;
60969;SDS011;46841;48.938;9.502;2023-04-25T02:29:14;8.63;;;4.67;;
60969;SDS011;46841;48.938;9.502;2023-04-25T02:31:41;7.32;;;5.00;;
60969;SDS011;46841;48.938;9.502;2023-04-25T02:34:06;7.40;;;4.55;;
60969;SDS011;46841;48.938;9.502;2023-04-25T02:36:34;7.35;;;4.43;;
60969;SDS011;46841;48.938;9.502;2023-04-25T02:39:00;8.68;;;4.70;;
60969;SDS011;46841;48.938;9.502;2023-04-25T02:41:26;6.97;;;4.40;;
60969;SDS011;46841;48.938;9.502;2023-04-25T02:43:54;5.35;;;4.25;;
60969;SDS011;46841;48.938;9.502;2023-04-25T02:46:19;8.52;;;4.65;;
60969;SDS011;46841;48.938;9.502;2023-04-25T02:48:45;9.70;;;4.60;;
60969;SDS011;46841;48.938;9.502;2023-04-25T02:51:10;8.88;;;4.35;;
60969;SDS011;46841;48.938;9.502;2023-04-25T02:53:36;6.15;;;4.43;;
60969;SDS011;46841;48.938;9.502;2023-04-25T02:56:01;7.25;;;4.53;;
60969;SDS011;46841;48.938;9.502;2023-04-25T02:58:27;6.78;;;4.53;;
60969;SDS011;46841;48.938;9.502;2023-04-25T03:00:53;7.80;;;4.63;;
60969;SDS011;46841;48.938;9.502;2023-04-25T03:03:18;6.90;;;4.68;;
60969;SDS011;46841;48.938;9.502;2023-04-25T03:05:48;6.50;;;4.93;;
60969;SDS011;46841;48.938;9.502;2023-04-25T03:08:16;6.95;;;4.70;;
60969;SDS011;46841;48.938;9.502;2023-04-25T03:10:42;6.78;;;5.00;;
60969;SDS011;46841;48.938;9.502;2023-04-25T03:13:09;8.73;;;5.40;;
60969;SDS011;46841;48.938;9.502;2023-04-25T03:15:34;8.60;;;5.20;;
60969;SDS011;46841;48.938;9.502;2023-04-25T03:18:00;7.75;;;5.80;;
60969;SDS011;46841;48.938;9.502;2023-04-25T03:20:25;12.05;;;6.10;;
60969;SDS011;46841;48.938;9.502;2023-04-25T03:22:51;9.63;;;6.15;;
60969;SDS011;46841;48.938;9.502;2023-04-25T03:25:17;9.63;;;5.50;;
60969;SDS011;46841;48.938;9.502;2023-04-25T03:27:42;7.45;;;4.78;;
60969;SDS011;46841;48.938;9.502;2023-04-25T03:30:07;6.40;;;4.85;;
60969;SDS011;46841;48.938;9.502;2023-04-25T03:32:34;7.85;;;4.50;;
60969;SDS011;46841;48.938;9.502;2023-04-25T03:35:00;6.15;;;4.38;;
60969;SDS011;46841;48.938;9.502;2023-04-25T03:37:26;7.33;;;4.80;;
60969;SDS011;46841;48.938;9.502;2023-04-25T03:39:52;6.72;;;4.45;;
60969;SDS011;46841;48.938;9.502;2023-04-25T03:42:18;7.38;;;4.63;;
60969;SDS011;46841;48.938;9.502;2023-04-25T03:44:43;9.18;;;5.60;;
60969;SDS011;46841;48.938;9.502;2023-04-25T03:47:09;13.50;;;6.47;;
60969;SDS011;46841;48.938;9.502;2023-04-25T03:49:34;9.05;;;5.65;;
60969;SDS011;46841;48.938;9.502;2023-04-25T03:52:02;8.85;;;5.60;;
60969;SDS011;46841;48.938;9.502;2023-04-25T03:54:33;9.25;;;5.70;;
60969;SDS011;46841;48.938;9.502;2023-04-25T03:57:07;8.57;;;5.75;;
60969;SDS011;46841;48.938;9.502;2023-04-25T03:59:36;7.00;;;4.90;;
60969;SDS011;46841;48.938;9.502;2023-04-25T04:02:02;7.20;;;4.63;;
60969;SDS011;46841;48.938;9.502;2023-04-25T04:04:28;7.32;;;4.88;;
60969;SDS011;46841;48.938;9.502;2023-04-25T04:06:53;8.07;;;4.53;;
60969;SDS011;46841;48.938;9.502;2023-04-25T04:09:23;6.95;;;4.70;;
60969;SDS011;46841;48.938;9.502;2023-04-25T04:11:49;12.43;;;6.28;;
60969;SDS011;46841;48.938;9.502;2023-04-25T04:14:14;17.95;;;10.50;;
60969;SDS011;46841;48.938;9.502;2023-04-25T04:16:45;14.75;;;9.05;;
60969;SDS011;46841;48.938;9.502;2023-04-25T04:19:10;12.15;;;7.57;;
60969;SDS011;46841;48.938;9.502;2023-04-25T04:21:37;12.15;;;6.57;;
60969;SDS011;46841;48.938;9.502;2023-04-25T04:24:03;9.57;;;6.28;;
60969;SDS011;46841;48.938;9.502;2023-04-25T04:26:34;8.45;;;5.10;;
60969;SDS011;46841;48.938;9.502;2023-04-25T04:29:22;10.27;;;5.47;;
60969;SDS011;46841;48.938;9.502;2023-04-25T04:31:57;8.02;;;5.28;;
60969;SDS011;46841;48.938;9.502;2023-04-25T04:34:23;7.50;;;5.45;;
60969;SDS011;46841;48.938;9.502;2023-04-25T04:36:50;8.00;;;5.45;;
60969;SDS011;46841;48.938;9.502;2023-04-25T04:39:15;9.02;;;5.82;;
60969;SDS011;46841;48.938;9.502;2023-04-25T04:41:52;9.50;;;5.50;;
60969;SDS011;46841;48.938;9.502;2023-04-25T04:44:37;7.22;;;4.78;;
60969;SDS011;46841;48.938;9.502;2023-04-25T04:47:30;7.97;;;5.25;;
60969;SDS011;46841;48.938;9.502;2023-04-25T04:50:23;8.82;;;5.32;;
60969;SDS011;46841;48.938;9.502;2023-04-25T04:53:03;7.13;;;4.88;;
60969;SDS011;46841;48.938;9.502;2023-04-25T04:55:52;7.57;;;4.93;;
60969;SDS011;46841;48.938;9.502;2023-04-25T04:58:31;7.57;;;5.05;;
60969;SDS011;46841;48.938;9.502;2023-04-25T05:01:06;7.72;;;5.25;;
60969;SDS011;46841;48.938;9.502;2023-04-25T05:03:40;7.95;;;5.25;;
60969;SDS011;46841;48.938;9.502;2023-04-25T05:06:13;8.05;;;5.05;;
60969;SDS011;46841;48.938;9.502;2023-04-25T05:08:38;8.35;;;5.10;;
60969;SDS011;46841;48.938;9.502;2023-04-25T05:11:13;8.85;;;5.50;;
60969;SDS011;46841;48.938;9.502;2023-04-25T05:13:57;10.60;;;5.03;;
60969;SDS011;46841;48.938;9.502;2023-04-25T05:16:46;6.60;;;4.82;;
60969;SDS011;46841;48.938;9.502;2023-04-25T05:19:36;7.32;;;4.78;;
60969;SDS011;46841;48.938;9.502;2023-04-25T05:22:15;7.25;;;5.10;;
60969;SDS011;46841;48.938;9.502;2023-04-25T05:25:03;8.65;;;5.38;;
60969;SDS011;46841;48.938;9.502;2023-04-25T05:27:53;6.68;;;4.90;;
60969;SDS011;46841;48.938;9.502;2023-04-25T05:30:27;8.40;;;5.75;;
60969;SDS011;46841;48.938;9.502;2023-04-25T05:33:22;7.75;;;4.90;;
60969;SDS011;46841;48.938;9.502;2023-04-25T05:35:48;7.90;;;4.70;;
60969;SDS011;46841;48.938;9.502;2023-04-25T05:38:13;6.78;;;4.70;;
60969;SDS011;46841;48.938;9.502;2023-04-25T05:41:02;7.82;;;5.00;;
60969;SDS011;46841;48.938;9.502;2023-04-25T05:43:46;8.48;;;5.30;;
60969;SDS011;46841;48.938;9.502;2023-04-25T05:46:27;11.23;;;5.18;;
60969;SDS011;46841;48.938;9.502;2023-04-25T05:49:08;7.78;;;4.85;;
60969;SDS011;46841;48.938;9.502;2023-04-25T05:51:47;6.38;;;4.88;;
60969;SDS011;46841;48.938;9.502;2023-04-25T05:54:29;9.00;;;5.85;;
60969;SDS011;46841;48.938;9.502;2023-04-25T05:56:56;7.75;;;5.82;;
60969;SDS011;46841;48.938;9.502;2023-04-25T05:59:22;8.63;;;5.35;;
60969;SDS011;46841;48.938;9.502;2023-04-25T06:01:47;8.52;;;5.90;;
60969;SDS011;46841;48.938;9.502;2023-04-25T06:04:13;8.02;;;5.18;;
60969;SDS011;46841;48.938;9.502;2023-04-25T06:06:38;7.05;;;5.30;;
60969;SDS011;46841;48.938;9.502;2023-04-25T06:09:03;8.25;;;5.70;;
60969;SDS011;46841;48.938;9.502;2023-04-25T06:11:30;9.95;;;5.95;;
60969;SDS011;46841;48.938;9.502;2023-04-25T06:13:55;8.27;;;5.25;;
60969;SDS011;46841;48.938;9.502;2023-04-25T06:16:21;7.53;;;5.07;;
60969;SDS011;46841;48.938;9.502;2023-04-25T06:18:46;6.35;;;4.80;;
60969;SDS011;46841;48.938;9.502;2023-04-25T06:21:11;7.32;;;5.15;;
60969;SDS011;46841;48.938;9.502;2023-04-25T06:23:37;8.45;;;4.80;;
60969;SDS011;46841;48.938;9.502;2023-04-25T06:26:05;9.20;;;5.53;;
60969;SDS011;46841;48.938;9.502;2023-04-25T06:28:32;7.90;;;5.88;;
60969;SDS011;46841;48.938;9.502;2023-04-25T06:30:58;8.25;;;5.47;;
60969;SDS011;46841;48.938;9.502;2023-04-25T06:33:23;6.78;;;5.13;;
60969;SDS011;46841;48.938;9.502;2023-04-25T06:35:50;8.02;;;5.28;;
60969;SDS011;46841;48.938;9.502;2023-04-25T06:38:19;7.80;;;5.40;;
60969;SDS011;46841;48.938;9.502;2023-04-25T06:40:47;8.18;;;4.97;;
60969;SDS011;46841;48.938;9.502;2023-04-25T06:43:13;7.25;;;4.60;;
60969;SDS011;46841;48.938;9.502;2023-04-25T06:45:57;5.95;;;4.30;;
60969;SDS011;46841;48.938;9.502;2023-04-25T06:48:26;7.57;;;4.40;;
60969;SDS011;46841;48.938;9.502;2023-04-25T06:50:52;7.57;;;4.83;;
60969;SDS011;46841;48.938;9.502;2023-04-25T06:53:17;7.55;;;5.00;;
60969;SDS011;46841;48.938;9.502;2023-04-25T06:55:46;8.25;;;4.28;;
60969;SDS011;46841;48.938;9.502;2023-04-25T06:58:16;6.45;;;4.43;;
60969;SDS011;46841;48.938;9.502;2023-04-25T07:00:53;6.10;;;4.15;;
60969;SDS011;46841;48.938;9.502;2023-04-25T07:03:21;5.40;;;3.95;;
60969;SDS011;46841;48.938;9.502;2023-04-25T07:05:47;7.65;;;4.18;;
60969;SDS011;46841;48.938;9.502;2023-04-25T07:08:13;5.60;;;4.18;;
60969;SDS011;46841;48.938;9.502;2023-04-25T07:10:38;6.20;;;4.20;;
60969;SDS011;46841;48.938;9.502;2023-04-25T07:13:04;5.78;;;4.20;;
60969;SDS011;46841;48.938;9.502;2023-04-25T07:15:29;7.82;;;4.97;;
60969;SDS011;46841;48.938;9.502;2023-04-25T07:17:55;5.97;;;4.10;;
60969;SDS011;46841;48.938;9.502;2023-04-25T07:20:21;5.47;;;3.85;;
60969;SDS011;46841;48.938;9.502;2023-04-25T07:22:46;6.72;;;4.50;;
60969;SDS011;46841;48.938;9.502;2023-04-25T07:25:12;6.05;;;4.25;;
60969;SDS011;46841;48.938;9.502;2023-04-25T07:27:37;7.35;;;4.40;;
60969;SDS011;46841;48.938;9.502;2023-04-25T07:30:15;5.10;;;3.88;;
60969;SDS011;46841;48.938;9.502;2023-04-25T07:32:41;6.07;;;3.85;;
60969;SDS011;46841;48.938;9.502;2023-04-25T07:35:06;10.02;;;4.00;;
60969;SDS011;46841;48.938;9.502;2023-04-25T07:37:35;5.00;;;3.85;;
60969;SDS011;46841;48.938;9.502;2023-04-25T07:40:13;5.00;;;3.90;;
60969;SDS011;46841;48.938;9.502;2023-04-25T07:42:45;5.95;;;4.00;;
60969;SDS011;46841;48.938;9.502;2023-04-25T07:45:12;6.05;;;3.95;;
60969;SDS011;46841;48.938;9.502;2023-04-25T07:47:39;5.25;;;3.83;;
60969;SDS011;46841;48.938;9.502;2023-04-25T07:50:05;5.35;;;3.90;;
60969;SDS011;46841;48.938;9.502;2023-04-25T07:52:31;6.97;;;4.25;;
60969;SDS011;46841;48.938;9.502;2023-04-25T07:55:05;7.45;;;4.78;;
60969;SDS011;46841;48.938;9.502;2023-04-25T07:57:40;5.22;;;3.67;;
60969;SDS011;46841;48.938;9.502;2023-04-25T08:00:06;7.65;;;3.97;;
60969;SDS011;46841;48.938;9.502;2023-04-25T08:02:38;4.82;;;3.58;;
60969;SDS011;46841;48.938;9.502;2023-04-25T08:05:04;5.45;;;3.90;;
60969;SDS011;46841;48.938;9.502;2023-04-25T08:07:32;6.22;;;4.63;;
60969;SDS011;46841;48.938;9.502;2023-04-25T08:10:02;8.75;;;4.57;;
60969;SDS011;46841;48.938;9.502;2023-04-25T08:12:31;6.85;;;4.90;;
60969;SDS011;46841;48.938;9.502;2023-04-25T08:14:57;6.20;;;4.93;;
60969;SDS011;46841;48.938;9.502;2023-04-25T08:17:26;8.40;;;4.70;;
60969;SDS011;46841;48.938;9.502;2023-04-25T08:19:51;9.98;;;6.03;;
60969;SDS011;46841;48.938;9.502;2023-04-25T08:22:23;6.80;;;5.13;;
60969;SDS011;46841;48.938;9.502;2023-04-25T08:24:53;6.50;;;4.70;;
60969;SDS011;46841;48.938;9.502;2023-04-25T08:27:19;8.30;;;5.45;;
60969;SDS011;46841;48.938;9.502;2023-04-25T08:29:46;8.27;;;5.72;;
60969;SDS011;46841;48.938;9.502;2023-04-25T08:32:11;8.30;;;5.70;;
60969;SDS011;46841;48.938;9.502;2023-04-25T08:34:41;8.48;;;5.93;;
60969;SDS011;46841;48.938;9.502;2023-04-25T08:37:08;11.10;;;6.40;;
60969;SDS011;46841;48.938;9.502;2023-04-25T08:39:39;10.02;;;6.15;;
60969;SDS011;46841;48.938;9.502;2023-04-25T08:42:24;9.48;;;5.75;;
60969;SDS011;46841;48.938;9.502;2023-04-25T08:44:49;7.80;;;5.70;;
60969;SDS011;46841;48.938;9.502;2023-04-25T08:47:15;7.63;;;5.25;;
60969;SDS011;46841;48.938;9.502;2023-04-25T08:49:48;8.15;;;5.18;;
60969;SDS011;46841;48.938;9.502;2023-04-25T08:52:16;8.25;;;5.80;;
60969;SDS011;46841;48.938;9.502;2023-04-25T08:54:47;10.57;;;5.70;;
60969;SDS011;46841;48.938;9.502;2023-04-25T08:57:13;7.55;;;5.35;;
60969;SDS011;46841;48.938;9.502;2023-04-25T09:02:08;8.57;;;5.40;;
60969;SDS011;46841;48.938;9.502;2023-04-25T09:04:35;8.10;;;5.18;;
60969;SDS011;46841;48.938;9.502;2023-04-25T09:07:00;9.07;;;4.93;;
60969;SDS011;46841;48.938;9.502;2023-04-25T09:09:26;8.25;;;5.15;;
60969;SDS011;46841;48.938;9.502;2023-04-25T09:11:51;8.38;;;4.53;;
60969;SDS011;46841;48.938;9.502;2023-04-25T09:14:20;6.53;;;4.50;;
60969;SDS011;46841;48.938;9.502;2023-04-25T09:17:04;7.75;;;5.15;;
60969;SDS011;46841;48.938;9.502;2023-04-25T09:19:36;6.68;;;4.88;;
60969;SDS011;46841;48.938;9.502;2023-04-25T09:22:06;9.10;;;5.25;;
60969;SDS011;46841;48.938;9.502;2023-04-25T09:26:57;7.53;;;5.30;;
60969;SDS011;46841;48.938;9.502;2023-04-25T09:29:32;6.68;;;5.07;;
60969;SDS011;46841;48.938;9.502;2023-04-25T09:34:43;6.38;;;5.35;;
60969;SDS011;46841;48.938;9.502;2023-04-25T09:37:10;7.45;;;5.10;;
60969;SDS011;46841;48.938;9.502;2023-04-25T09:39:55;9.25;;;5.10;;
60969;SDS011;46841;48.938;9.502;2023-04-25T09:42:25;10.10;;;5.68;;
60969;SDS011;46841;48.938;9.502;2023-04-25T09:44:53;10.07;;;6.15;;
60969;SDS011;46841;48.938;9.502;2023-04-25T09:47:19;7.55;;;5.22;;
60969;SDS011;46841;48.938;9.502;2023-04-25T09:49:47;9.32;;;5.97;;
60969;SDS011;46841;48.938;9.502;2023-04-25T09:52:14;10.05;;;5.70;;
60969;SDS011;46841;48.938;9.502;2023-04-25T09:54:49;8.55;;;6.07;;
60969;SDS011;46841;48.938;9.502;2023-04-25T09:57:21;6.70;;;5.20;;
60969;SDS011;46841;48.938;9.502;2023-04-25T10:02:14;8.40;;;4.93;;
60969;SDS011;46841;48.938;9.502;2023-04-25T10:04:39;7.55;;;5.30;;
60969;SDS011;46841;48.938;9.502;2023-04-25T10:07:14;8.65;;;5.13;;
60969;SDS011;46841;48.938;9.502;2023-04-25T10:09:43;8.23;;;5.18;;
60969;SDS011;46841;48.938;9.502;2023-04-25T10:12:10;10.82;;;6.03;;
60969;SDS011;46841;48.938;9.502;2023-04-25T10:14:36;9.93;;;6.25;;
60969;SDS011;46841;48.938;9.502;2023-04-25T10:17:01;8.82;;;6.10;;
60969;SDS011;46841;48.938;9.502;2023-04-25T10:19:27;10.02;;;7.18;;
60969;SDS011;46841;48.938;9.502;2023-04-25T10:22:03;9.77;;;7.13;;
60969;SDS011;46841;48.938;9.502;2023-04-25T10:24:29;9.13;;;6.15;;
60969;SDS011;46841;48.938;9.502;2023-04-25T10:26:54;9.63;;;6.18;;
60969;SDS011;46841;48.938;9.502;2023-04-25T10:29:21;7.93;;;6.17;;
60969;SDS011;46841;48.938;9.502;2023-04-25T10:31:46;8.77;;;6.80;;
60969;SDS011;46841;48.938;9.502;2023-04-25T10:34:12;9.95;;;7.55;;
60969;SDS011;46841;48.938;9.502;2023-04-25T10:36:37;5.70;;;4.32;;
60969;SDS011;46841;48.938;9.502;2023-04-25T10:39:04;7.50;;;4.25;;
60969;SDS011;46841;48.938;9.502;2023-04-25T10:41:46;5.13;;;3.88;;
60969;SDS011;46841;48.938;9.502;2023-04-25T10:44:13;7.97;;;4.50;;
60969;SDS011;46841;48.938;9.502;2023-04-25T10:46:38;6.75;;;4.63;;
60969;SDS011;46841;48.938;9.502;2023-04-25T10:49:04;8.00;;;4.70;;
60969;SDS011;46841;48.938;9.502;2023-04-25T10:51:30;9.68;;;4.78;;
60969;SDS011;46841;48.938;9.502;2023-04-25T10:56:22;6.38;;;4.28;;
60969;SDS011;46841;48.938;9.502;2023-04-25T10:58:48;6.07;;;3.90;;
60969;SDS011;46841;48.938;9.502;2023-04-25T11:01:14;6.65;;;3.85;;
60969;SDS011;46841;48.938;9.502;2023-04-25T11:03:40;6.80;;;4.13;;
60969;SDS011;46841;48.938;9.502;2023-04-25T11:06:07;6.40;;;3.47;;
60969;SDS011;46841;48.938;9.502;2023-04-25T11:08:41;5.28;;;3.97;;
60969;SDS011;46841;48.938;9.502;2023-04-25T11:13:37;9.77;;;5.00;;
60969;SDS011;46841;48.938;9.502;2023-04-25T11:16:02;6.93;;;5.30;;
60969;SDS011;46841;48.938;9.502;2023-04-25T11:18:28;8.77;;;5.30;;
60969;SDS011;46841;48.938;9.502;2023-04-25T11:20:53;9.38;;;6.53;;
60969;SDS011;46841;48.938;9.502;2023-04-25T11:23:18;11.30;;;7.25;;
60969;SDS011;46841;48.938;9.502;2023-04-25T11:25:44;10.25;;;7.22;;
60969;SDS011;46841;48.938;9.502;2023-04-25T11:28:09;11.25;;;6.53;;
60969;SDS011;46841;48.938;9.502;2023-04-25T11:30:35;9.05;;;5.97;;
60969;SDS011;46841;48.938;9.502;2023-04-25T11:33:00;10.25;;;6.90;;
60969;SDS011;46841;48.938;9.502;2023-04-25T11:35:27;9.80;;;6.78;;
60969;SDS011;46841;48.938;9.502;2023-04-25T11:37:53;8.05;;;5.80;;
60969;SDS011;46841;48.938;9.502;2023-04-25T11:40:18;10.13;;;6.30;;
60969;SDS011;46841;48.938;9.502;2023-04-25T11:42:44;10.50;;;6.90;;
60969;SDS011;46841;48.938;9.502;2023-04-25T11:45:10;11.10;;;6.45;;
60969;SDS011;46841;48.938;9.502;2023-04-25T11:47:36;10.00;;;6.88;;
60969;SDS011;46841;48.938;9.502;2023-04-25T11:50:02;8.43;;;6.13;;
60969;SDS011;46841;48.938;9.502;2023-04-25T11:55:06;7.53;;;5.63;;
60969;SDS011;46841;48.938;9.502;2023-04-25T11:57:32;8.80;;;5.40;;
60969;SDS011;46841;48.938;9.502;2023-04-25T12:02:39;8.25;;;4.63;;
60969;SDS011;46841;48.938;9.502;2023-04-25T12:05:08;7.97;;;5.15;;
60969;SDS011;46841;48.938;9.502;2023-04-25T12:07:34;10.38;;;5.70;;
60969;SDS011;46841;48.938;9.502;2023-04-25T12:10:03;11.75;;;5.85;;
60969;SDS011;46841;48.938;9.502;2023-04-25T12:12:32;9.88;;;5.75;;
60969;SDS011;46841;48.938;9.502;2023-04-25T12:14:57;9.25;;;5.72;;
60969;SDS011;46841;48.938;9.502;2023-04-25T12:17:33;8.57;;;5.55;;
60969;SDS011;46841;48.938;9.502;2023-04-25T12:19:58;7.50;;;5.75;;
60969;SDS011;46841;48.938;9.502;2023-04-25T12:22:24;9.20;;;5.35;;
60969;SDS011;46841;48.938;9.502;2023-04-25T12:24:49;9.52;;;5.95;;
60969;SDS011;46841;48.938;9.502;2023-04-25T12:27:15;9.38;;;5.10;;
60969;SDS011;46841;48.938;9.502;2023-04-25T12:29:49;7.37;;;5.23;;
60969;SDS011;46841;48.938;9.502;2023-04-25T12:32:16;9.43;;;5.32;;
60969;SDS011;46841;48.938;9.502;2023-04-25T12:34:42;6.80;;;5.47;;
60969;SDS011;46841;48.938;9.502;2023-04-25T12:37:07;7.05;;;4.90;;
60969;SDS011;46841;48.938;9.502;2023-04-25T12:39:32;8.55;;;4.95;;
60969;SDS011;46841;48.938;9.502;2023-04-25T12:41:57;6.28;;;4.70;;
60969;SDS011;46841;48.938;9.502;2023-04-25T12:44:24;6.85;;;4.63;;
60969;SDS011;46841;48.938;9.502;2023-04-25T12:46:49;8.43;;;4.60;;
60969;SDS011;46841;48.938;9.502;2023-04-25T12:49:15;7.95;;;4.95;;
60969;SDS011;46841;48.938;9.502;2023-04-25T12:51:40;8.52;;;5.90;;
60969;SDS011;46841;48.938;9.502;2023-04-25T12:54:06;9.48;;;5.53;;
60969;SDS011;46841;48.938;9.502;2023-04-25T12:56:33;9.30;;;5.75;;
60969;SDS011;46841;48.938;9.502;2023-04-25T12:58:58;7.85;;;5.85;;
60969;SDS011;46841;48.938;9.502;2023-04-25T13:01:24;9.30;;;6.22;;
60969;SDS011;46841;48.938;9.502;2023-04-25T13:03:49;9.18;;;6.20;;
60969;SDS011;46841;48.938;9.502;2023-04-25T13:06:15;11.68;;;7.07;;
60969;SDS011;46841;48.938;9.502;2023-04-25T13:08:41;11.45;;;7.07;;
60969;SDS011;46841;48.938;9.502;2023-04-25T13:11:07;8.75;;;6.57;;
60969;SDS011;46841;48.938;9.502;2023-04-25T13:13:32;11.85;;;8.32;;
60969;SDS011;46841;48.938;9.502;2023-04-25T13:16:00;10.43;;;7.07;;
60969;SDS011;46841;48.938;9.502;2023-04-25T13:18:25;11.60;;;7.07;;
60969;SDS011;46841;48.938;9.502;2023-04-25T13:20:54;9.93;;;6.93;;
60969;SDS011;46841;48.938;9.502;2023-04-25T13:23:20;9.98;;;6.85;;
60969;SDS011;46841;48.938;9.502;2023-04-25T13:25:45;10.50;;;7.15;;
60969;SDS011;46841;48.938;9.502;2023-04-25T13:28:11;11.80;;;7.10;;
60969;SDS011;46841;48.938;9.502;2023-04-25T13:30:36;9.60;;;7.13;;
60969;SDS011;46841;48.938;9.502;2023-04-25T13:33:02;12.95;;;6.90;;
60969;SDS011;46841;48.938;9.502;2023-04-25T13:35:28;11.90;;;6.15;;
60969;SDS011;46841;48.938;9.502;2023-04-25T13:37:54;9.85;;;6.07;;
60969;SDS011;46841;48.938;9.502;2023-04-25T13:40:19;9.30;;;6.25;;
60969;SDS011;46841;48.938;9.502;2023-04-25T13:42:45;10.18;;;5.95;;
60969;SDS011;46841;48.938;9.502;2023-04-25T13:45:10;10.32;;;6.53;;
60969;SDS011;46841;48.938;9.502;2023-04-25T13:47:36;9.30;;;6.53;;
60969;SDS011;46841;48.938;9.502;2023-04-25T13:50:01;9.73;;;6.55;;
60969;SDS011;46841;48.938;9.502;2023-04-25T13:52:28;9.82;;;5.90;;
60969;SDS011;46841;48.938;9.502;2023-04-25T13:54:53;9.85;;;5.68;;
60969;SDS011;46841;48.938;9.502;2023-04-25T13:57:19;10.02;;;6.15;;
60969;SDS011;46841;48.938;9.502;2023-04-25T13:59:44;9.65;;;6.57;;
60969;SDS011;46841;48.938;9.502;2023-04-25T14:02:11;15.25;;;7.10;;
60969;SDS011;46841;48.938;9.502;2023-04-25T14:04:37;10.85;;;7.40;;
60969;SDS011;46841;48.938;9.502;2023-04-25T14:07:02;13.13;;;7.45;;
60969;SDS011;46841;48.938;9.502;2023-04-25T14:09:28;13.80;;;7.35;;
60969;SDS011;46841;48.938;9.502;2023-04-25T14:11:54;13.45;;;8.30;;
60969;SDS011;46841;48.938;9.502;2023-04-25T14:14:20;13.15;;;8.32;;
60969;SDS011;46841;48.938;9.502;2023-04-25T14:16:48;9.98;;;6.95;;
60969;SDS011;46841;48.938;9.502;2023-04-25T14:19:15;12.18;;;7.88;;
60969;SDS011;46841;48.938;9.502;2023-04-25T14:21:40;12.95;;;7.85;;
60969;SDS011;46841;48.938;9.502;2023-04-25T14:24:06;11.57;;;8.18;;
60969;SDS011;46841;48.938;9.502;2023-04-25T14:26:32;15.38;;;9.15;;
60969;SDS011;46841;48.938;9.502;2023-04-25T14:28:58;16.38;;;9.35;;
60969;SDS011;46841;48.938;9.502;2023-04-25T14:31:23;14.93;;;9.23;;
60969;SDS011;46841;48.938;9.502;2023-04-25T14:33:48;13.90;;;8.77;;
60969;SDS011;46841;48.938;9.502;2023-04-25T14:36:14;12.27;;;8.05;;
60969;SDS011;46841;48.938;9.502;2023-04-25T14:38:39;11.02;;;7.60;;
60969;SDS011;46841;48.938;9.502;2023-04-25T14:41:04;13.90;;;7.47;;
60969;SDS011;46841;48.938;9.502;2023-04-25T14:43:30;15.65;;;8.82;;
60969;SDS011;46841;48.938;9.502;2023-04-25T14:45:56;22.15;;;12.57;;
60969;SDS011;46841;48.938;9.502;2023-04-25T14:48:21;13.85;;;7.82;;
60969;SDS011;46841;48.938;9.502;2023-04-25T14:50:46;11.80;;;6.88;;
60969;SDS011;46841;48.938;9.502;2023-04-25T14:53:11;18.70;;;8.45;;
60969;SDS011;46841;48.938;9.502;2023-04-25T14:55:37;11.70;;;7.80;;
60969;SDS011;46841;48.938;9.502;2023-04-25T14:58:02;13.50;;;8.38;;
60969;SDS011;46841;48.938;9.502;2023-04-25T15:00:28;15.60;;;7.45;;
60969;SDS011;46841;48.938;9.502;2023-04-25T15:02:53;12.75;;;7.38;;
60969;SDS011;46841;48.938;9.502;2023-04-25T15:05:18;12.18;;;7.95;;
60969;SDS011;46841;48.938;9.502;2023-04-25T15:07:45;15.55;;;8.32;;
60969;SDS011;46841;48.938;9.502;2023-04-25T15:10:10;12.77;;;8.68;;
60969;SDS011;46841;48.938;9.502;2023-04-25T15:12:44;11.13;;;8.02;;